createdAt,value
2018-08-03T00:00:33.171Z,21.50
2018-08-03T00:03:02.010Z,21.60
2018-08-03T00:05:30.024Z,21.40
2018-08-03T00:07:57.967Z,21.40
2018-08-03T00:10:25.941Z,21.30
2018-08-03T00:12:53.892Z,21.30
2018-08-03T00:15:21.910Z,21.20
2018-08-03T00:17:49.848Z,21.20
2018-08-03T00:20:17.817Z,21.10
2018-08-03T00:22:45.788Z,21.30
2018-08-03T00:25:13.856Z,21.20
2018-08-03T00:27:41.794Z,21.20
2018-08-03T00:30:09.779Z,21.00
2018-08-03T00:32:37.767Z,21.10
2018-08-03T00:35:05.730Z,21.10
2018-08-03T00:37:33.669Z,21.00
2018-08-03T00:40:01.673Z,20.90
2018-08-03T00:42:29.616Z,20.80
2018-08-03T00:44:57.599Z,20.90
2018-08-03T00:47:25.541Z,20.80
2018-08-03T00:49:53.543Z,20.90
2018-08-03T00:52:21.516Z,20.80
2018-08-03T00:54:49.456Z,20.70
2018-08-03T00:57:17.404Z,20.70
2018-08-03T00:59:45.345Z,20.60
2018-08-03T01:02:13.363Z,20.60
2018-08-03T01:04:41.297Z,20.70
2018-08-03T01:07:09.271Z,20.70
2018-08-03T01:09:37.226Z,20.60
2018-08-03T01:12:05.173Z,20.70
2018-08-03T01:14:33.162Z,20.60
2018-08-03T01:17:01.096Z,20.60
2018-08-03T01:19:29.098Z,20.60
2018-08-03T01:21:57.065Z,20.50
2018-08-03T01:24:24.988Z,20.40
2018-08-03T01:26:53.239Z,20.50
2018-08-03T01:29:21.178Z,20.50
2018-08-03T01:31:49.160Z,20.40
2018-08-03T01:34:17.113Z,20.30
2018-08-03T01:36:45.095Z,20.30
2018-08-03T01:39:13.032Z,20.30
2018-08-03T01:41:40.991Z,20.40
2018-08-03T01:44:08.962Z,20.20
2018-08-03T01:46:36.885Z,20.20
2018-08-03T01:49:04.964Z,20.20
2018-08-03T01:51:32.863Z,20.30
2018-08-03T01:54:00.874Z,20.20
2018-08-03T01:56:28.793Z,20.20
2018-08-03T01:58:56.872Z,20.20
2018-08-03T02:01:24.800Z,20.10
2018-08-03T02:03:52.886Z,20.20
2018-08-03T02:06:20.947Z,20.10
2018-08-03T02:08:48.886Z,20.10
2018-08-03T02:11:16.842Z,20.10
2018-08-03T02:13:44.747Z,20.00
2018-08-03T02:16:12.697Z,20.00
2018-08-03T02:18:40.642Z,20.10
2018-08-03T02:21:08.574Z,20.00
2018-08-03T02:23:36.583Z,20.00
2018-08-03T02:26:04.521Z,20.10
2018-08-03T02:28:32.513Z,20.10
2018-08-03T02:31:00.471Z,20.10
2018-08-03T02:33:28.415Z,20.00
2018-08-03T02:35:56.400Z,20.00
2018-08-03T02:38:24.445Z,19.90
2018-08-03T02:40:52.494Z,20.10
2018-08-03T02:43:20.511Z,20.00
2018-08-03T02:45:48.491Z,19.90
2018-08-03T02:48:16.426Z,19.80
2018-08-03T02:50:44.460Z,19.90
2018-08-03T02:53:12.446Z,19.90
2018-08-03T02:55:40.381Z,19.90
2018-08-03T02:58:08.365Z,19.80
2018-08-03T03:00:36.315Z,19.80
2018-08-03T03:03:04.244Z,19.70
2018-08-03T03:05:32.253Z,19.70
2018-08-03T03:08:00.176Z,19.60
2018-08-03T03:10:28.120Z,19.50
2018-08-03T03:12:56.097Z,19.50
2018-08-03T03:15:24.116Z,19.50
2018-08-03T03:17:52.054Z,19.40
2018-08-03T03:20:20.019Z,19.60
2018-08-03T03:22:47.953Z,19.50
2018-08-03T03:25:16.043Z,19.50
2018-08-03T03:27:43.976Z,19.50
2018-08-03T03:30:11.956Z,19.40
2018-08-03T03:32:39.981Z,19.40
2018-08-03T03:35:07.892Z,19.40
2018-08-03T03:37:35.838Z,19.40
2018-08-03T03:40:03.815Z,19.30
2018-08-03T03:42:31.788Z,19.30
2018-08-03T03:44:59.766Z,19.30
2018-08-03T03:47:27.747Z,19.30
2018-08-03T03:49:55.715Z,19.20
2018-08-03T03:52:23.684Z,19.10
2018-08-03T03:54:51.726Z,19.10
2018-08-03T03:57:19.681Z,19.20
2018-08-03T03:59:47.650Z,19.10
2018-08-03T04:02:15.608Z,19.10
2018-08-03T04:04:43.530Z,19.20
2018-08-03T04:07:11.503Z,19.10
2018-08-03T04:09:39.473Z,19.20
2018-08-03T04:12:07.453Z,19.20
2018-08-03T04:14:35.393Z,19.10
2018-08-03T04:17:03.365Z,19.10
2018-08-03T04:19:31.354Z,19.10
2018-08-03T04:21:59.340Z,19.20
2018-08-03T04:24:27.306Z,19.10
2018-08-03T04:26:55.278Z,19.10
2018-08-03T04:29:23.277Z,19.10
2018-08-03T04:31:51.240Z,19.20
2018-08-03T04:34:19.230Z,19.30
2018-08-03T04:36:47.220Z,19.40
2018-08-03T04:39:15.184Z,19.40
2018-08-03T04:41:43.133Z,19.50
2018-08-03T04:44:11.057Z,19.50
2018-08-03T04:46:39.015Z,19.40
2018-08-03T04:49:07.131Z,19.40
2018-08-03T04:51:35.134Z,19.50
2018-08-03T04:54:03.067Z,19.50
2018-08-03T04:56:31.029Z,19.40
2018-08-03T04:58:58.996Z,19.50
2018-08-03T05:01:26.995Z,19.50
2018-08-03T05:03:54.960Z,19.50
2018-08-03T05:06:22.941Z,19.60
2018-08-03T05:08:50.855Z,19.60
2018-08-03T05:11:18.824Z,19.60
2018-08-03T05:13:46.894Z,19.60
2018-08-03T05:16:14.820Z,19.60
2018-08-03T05:18:42.798Z,19.80
2018-08-03T05:21:10.714Z,19.80
2018-08-03T05:23:38.689Z,19.80
2018-08-03T05:26:06.633Z,19.80
2018-08-03T05:28:34.664Z,19.90
2018-08-03T05:31:02.640Z,19.90
2018-08-03T05:33:30.621Z,20.00
2018-08-03T05:35:58.668Z,20.00
2018-08-03T05:38:26.548Z,20.00
2018-08-03T05:40:54.535Z,20.30
2018-08-03T05:43:22.468Z,20.30
2018-08-03T05:45:50.580Z,20.30
2018-08-03T05:48:18.549Z,20.50
2018-08-03T05:50:46.555Z,20.60
2018-08-03T05:53:14.568Z,20.60
2018-08-03T05:55:42.602Z,20.60
2018-08-03T05:58:10.576Z,20.70
2018-08-03T06:00:38.536Z,20.70
2018-08-03T06:03:06.605Z,20.80
2018-08-03T06:05:34.540Z,20.90
2018-08-03T06:08:02.541Z,21.00
2018-08-03T06:10:30.484Z,21.10
2018-08-03T06:12:58.501Z,21.10
2018-08-03T06:15:26.467Z,21.00
2018-08-03T06:17:54.412Z,21.20
2018-08-03T06:20:22.407Z,21.30
2018-08-03T06:22:50.339Z,21.30
2018-08-03T06:25:18.310Z,21.50
2018-08-03T06:27:46.248Z,21.50
2018-08-03T06:30:14.211Z,21.50
2018-08-03T06:32:42.161Z,21.60
2018-08-03T06:35:10.154Z,21.80
2018-08-03T06:37:38.096Z,21.80
2018-08-03T06:40:06.182Z,21.80
2018-08-03T06:42:34.146Z,21.80
2018-08-03T06:45:02.121Z,21.90
2018-08-03T06:47:30.570Z,22.20
2018-08-03T06:49:58.584Z,22.30
2018-08-03T06:52:26.547Z,22.40
2018-08-03T06:54:54.517Z,22.40
2018-08-03T06:57:22.548Z,22.30
2018-08-03T06:59:50.458Z,22.50
2018-08-03T07:02:18.391Z,22.70
2018-08-03T07:04:46.344Z,22.80
2018-08-03T07:07:14.319Z,22.70
2018-08-03T07:09:42.273Z,22.80
2018-08-03T07:12:10.207Z,23.10
2018-08-03T07:14:38.297Z,23.10
2018-08-03T07:17:06.229Z,23.10
2018-08-03T07:19:34.263Z,23.00
2018-08-03T07:22:02.203Z,23.20
2018-08-03T07:24:30.187Z,23.40
2018-08-03T07:26:58.174Z,23.50
2018-08-03T07:29:26.144Z,23.70
2018-08-03T07:31:54.118Z,23.50
2018-08-03T07:34:22.061Z,23.60
2018-08-03T07:36:50.072Z,24.00
2018-08-03T07:39:17.974Z,24.20
2018-08-03T07:41:45.926Z,24.30
2018-08-03T07:44:13.888Z,24.20
2018-08-03T07:46:41.787Z,24.20
2018-08-03T07:49:09.750Z,24.40
2018-08-03T07:51:37.778Z,24.50
2018-08-03T07:54:05.814Z,24.60
2018-08-03T07:56:33.740Z,24.60
2018-08-03T07:59:01.710Z,24.80
2018-08-03T08:01:29.644Z,24.80
2018-08-03T08:03:57.602Z,24.90
2018-08-03T08:06:25.497Z,24.80
2018-08-03T08:08:53.481Z,25.10
2018-08-03T08:11:21.457Z,25.00
2018-08-03T08:13:49.499Z,25.20
2018-08-03T08:16:17.421Z,25.20
2018-08-03T08:18:45.346Z,25.30
2018-08-03T08:21:13.317Z,25.60
2018-08-03T08:23:41.262Z,25.60
2018-08-03T08:26:09.239Z,25.80
2018-08-03T08:28:37.180Z,25.70
2018-08-03T08:31:05.235Z,25.70
2018-08-03T08:33:33.152Z,25.40
2018-08-03T08:36:01.133Z,25.70
2018-08-03T08:38:29.069Z,26.00
2018-08-03T08:40:57.112Z,26.20
2018-08-03T08:43:25.043Z,26.30
2018-08-03T08:45:52.970Z,26.10
2018-08-03T08:48:20.945Z,26.30
2018-08-03T08:50:48.864Z,26.30
2018-08-03T08:53:16.823Z,26.50
2018-08-03T08:55:44.765Z,26.80
2018-08-03T08:58:12.741Z,26.70
2018-08-03T09:00:40.663Z,26.00
2018-08-03T09:03:08.609Z,25.60
2018-08-03T09:05:36.529Z,26.40
2018-08-03T09:08:04.490Z,26.30
2018-08-03T09:10:32.411Z,25.60
2018-08-03T09:13:00.376Z,25.20
2018-08-03T09:15:28.309Z,24.80
2018-08-03T09:17:56.232Z,25.10
2018-08-03T09:20:24.201Z,25.10
2018-08-03T09:22:52.119Z,25.60
2018-08-03T09:25:20.110Z,25.90
2018-08-03T09:27:48.018Z,25.90
2018-08-03T09:30:15.992Z,25.60
2018-08-03T09:32:43.919Z,25.60
2018-08-03T09:35:11.874Z,25.60
2018-08-03T09:37:39.821Z,25.60
2018-08-03T09:40:07.768Z,25.80
2018-08-03T09:42:35.730Z,25.40
2018-08-03T09:45:04.124Z,25.60
2018-08-03T09:47:32.089Z,25.50
2018-08-03T09:50:00.025Z,25.60
2018-08-03T09:52:27.980Z,25.40
2018-08-03T09:54:55.896Z,26.20
2018-08-03T09:57:23.886Z,25.90
2018-08-03T09:59:51.836Z,25.60
2018-08-03T10:02:19.852Z,26.20
2018-08-03T10:04:47.805Z,25.60
2018-08-03T10:07:15.806Z,26.50
2018-08-03T10:09:43.727Z,26.30
2018-08-03T10:12:11.639Z,26.60
2018-08-03T10:14:39.606Z,27.20
2018-08-03T10:17:07.519Z,26.90
2018-08-03T10:19:35.464Z,26.80
2018-08-03T10:22:03.422Z,27.10
2018-08-03T10:24:31.427Z,27.60
2018-08-03T10:26:59.470Z,27.10
2018-08-03T10:29:27.473Z,26.80
2018-08-03T10:31:55.396Z,26.80
2018-08-03T10:34:23.345Z,27.10
2018-08-03T10:36:51.332Z,27.30
2018-08-03T10:39:19.258Z,27.50
2018-08-03T10:41:47.213Z,28.40
2018-08-03T10:44:15.142Z,28.70
2018-08-03T10:46:43.099Z,28.30
2018-08-03T10:49:11.016Z,28.30
2018-08-03T10:51:38.941Z,28.60
2018-08-03T10:54:06.905Z,28.80
2018-08-03T10:56:34.825Z,29.00
2018-08-03T10:59:02.798Z,29.20
2018-08-03T11:01:30.856Z,29.20
2018-08-03T11:03:58.699Z,28.70
2018-08-03T11:06:26.640Z,29.20
2018-08-03T11:08:54.568Z,29.30
2018-08-03T11:11:22.523Z,29.70
2018-08-03T11:13:50.641Z,29.60
2018-08-03T11:16:18.394Z,29.60
2018-08-03T11:18:46.311Z,30.40
2018-08-03T11:21:14.297Z,31.60
2018-08-03T11:23:42.227Z,32.50
2018-08-03T11:26:10.167Z,32.60
2018-08-03T11:28:38.100Z,32.60
2018-08-03T11:31:06.005Z,31.20
2018-08-03T11:33:33.992Z,31.40
2018-08-03T11:36:01.982Z,32.40
2018-08-03T11:38:29.951Z,32.40
2018-08-03T11:40:57.963Z,33.00
2018-08-03T11:43:25.983Z,33.00
2018-08-03T11:45:53.933Z,33.20
2018-08-03T11:48:21.925Z,33.40
2018-08-03T11:50:49.886Z,33.70
2018-08-03T11:53:17.802Z,34.30
2018-08-03T11:55:45.739Z,33.80
2018-08-03T11:58:13.693Z,34.00
2018-08-03T12:00:41.697Z,34.50
2018-08-03T12:03:09.631Z,34.10
2018-08-03T12:05:37.544Z,34.10
2018-08-03T12:08:05.488Z,33.80
2018-08-03T12:10:33.446Z,34.30
2018-08-03T12:13:01.435Z,33.90
2018-08-03T12:15:29.457Z,33.90
2018-08-03T12:17:57.535Z,34.70
2018-08-03T12:20:25.435Z,35.10
2018-08-03T12:22:53.397Z,34.20
2018-08-03T12:25:21.341Z,34.70
2018-08-03T12:27:49.317Z,34.80
2018-08-03T12:30:17.288Z,35.60
2018-08-03T12:32:45.201Z,35.20
2018-08-03T12:35:13.148Z,35.90
2018-08-03T12:37:41.086Z,35.50
2018-08-03T12:40:09.025Z,35.60
2018-08-03T12:42:36.949Z,35.50
2018-08-03T12:45:04.891Z,36.40
2018-08-03T12:47:32.899Z,35.90
2018-08-03T12:50:00.824Z,36.30
2018-08-03T12:52:28.838Z,35.90
2018-08-03T12:54:56.722Z,36.10
2018-08-03T12:57:24.713Z,36.50
2018-08-03T12:59:52.667Z,36.20
2018-08-03T13:02:20.597Z,36.50
2018-08-03T13:04:48.519Z,36.60
2018-08-03T13:07:16.586Z,36.40
2018-08-03T13:09:44.431Z,37.10
2018-08-03T13:12:12.450Z,37.30
2018-08-03T13:14:40.411Z,36.60
2018-08-03T13:17:08.567Z,36.80
2018-08-03T13:19:36.591Z,37.50
2018-08-03T13:22:04.549Z,37.90
2018-08-03T13:24:32.539Z,37.50
2018-08-03T13:27:00.460Z,37.60
2018-08-03T13:29:28.458Z,37.60
2018-08-03T13:31:56.354Z,38.00
2018-08-03T13:34:24.346Z,37.60
2018-08-03T13:36:52.414Z,38.50
2018-08-03T13:39:20.355Z,37.90
2018-08-03T13:41:48.329Z,37.10
2018-08-03T13:44:16.311Z,37.40
2018-08-03T13:46:44.285Z,38.10
2018-08-03T13:49:12.221Z,38.70
2018-08-03T13:51:40.231Z,37.20
2018-08-03T13:54:08.175Z,37.90
2018-08-03T13:56:36.146Z,39.00
2018-08-03T13:59:04.357Z,38.50
2018-08-03T14:02:17.125Z,37.40
2018-08-03T14:04:45.079Z,38.70
2018-08-03T14:07:13.000Z,38.00
2018-08-03T14:09:40.981Z,38.90
2018-08-03T14:12:09.027Z,38.50
2018-08-03T14:14:38.056Z,38.00
2018-08-03T14:17:06.107Z,37.50
2018-08-03T14:19:34.097Z,38.60
2018-08-03T14:22:02.079Z,39.00
2018-08-03T14:24:30.021Z,41.00
2018-08-03T14:26:58.041Z,44.20
2018-08-03T14:29:25.997Z,44.30
2018-08-03T14:31:54.116Z,44.90
2018-08-03T14:34:21.950Z,43.90
2018-08-03T14:36:49.976Z,39.20
2018-08-03T14:39:17.932Z,37.10
2018-08-03T14:41:45.872Z,41.40
2018-08-03T14:44:13.858Z,43.30
2018-08-03T14:46:41.897Z,42.30
2018-08-03T14:49:09.891Z,42.50
2018-08-03T14:51:38.160Z,43.20
2018-08-03T14:54:06.169Z,43.90
2018-08-03T14:56:34.220Z,39.70
2018-08-03T14:59:02.197Z,36.90
2018-08-03T15:01:30.277Z,42.50
2018-08-03T15:03:58.325Z,40.50
2018-08-03T15:06:26.325Z,39.30
2018-08-03T15:08:54.306Z,44.20
2018-08-03T15:11:22.259Z,41.70
2018-08-03T15:13:50.226Z,43.80
2018-08-03T15:16:18.197Z,38.80
2018-08-03T15:18:46.148Z,43.00
2018-08-03T15:21:14.118Z,45.40
2018-08-03T15:23:42.083Z,42.80
2018-08-03T15:26:10.050Z,44.20
2018-08-03T15:28:38.020Z,44.90
2018-08-03T15:31:06.005Z,44.20
2018-08-03T15:33:33.963Z,43.60
2018-08-03T15:36:01.879Z,42.90
2018-08-03T15:38:29.902Z,42.80
2018-08-03T15:40:57.958Z,43.50
2018-08-03T15:43:25.921Z,41.60
2018-08-03T15:45:53.900Z,39.70
2018-08-03T15:48:21.856Z,40.10
2018-08-03T15:50:49.840Z,39.30
2018-08-03T15:53:17.774Z,41.40
2018-08-03T15:55:45.738Z,41.00
2018-08-03T15:58:13.696Z,39.40
2018-08-03T16:00:41.750Z,40.60
2018-08-03T16:03:10.570Z,39.40
2018-08-03T16:05:38.521Z,38.20
2018-08-03T16:08:06.458Z,39.00
2018-08-03T16:10:34.414Z,39.50
2018-08-03T16:13:02.366Z,37.50
2018-08-03T16:15:30.377Z,37.70
2018-08-03T16:17:58.374Z,39.70
2018-08-03T16:20:26.349Z,38.80
2018-08-03T16:22:54.316Z,39.40
2018-08-03T16:25:22.293Z,39.20
2018-08-03T16:27:50.264Z,39.40
2018-08-03T16:30:18.184Z,39.10
2018-08-03T16:32:46.166Z,39.30
2018-08-03T16:35:14.085Z,38.00
2018-08-03T16:37:42.044Z,39.00
2018-08-03T16:40:10.391Z,38.40
2018-08-03T16:42:38.501Z,39.00
2018-08-03T16:45:07.279Z,38.00
2018-08-03T16:47:35.281Z,39.80
2018-08-03T16:50:03.483Z,37.90
2018-08-03T16:52:31.416Z,38.50
2018-08-03T16:54:59.388Z,38.60
2018-08-03T16:57:27.296Z,38.10
2018-08-03T16:59:55.276Z,38.10
2018-08-03T17:02:23.263Z,38.40
2018-08-03T17:04:51.230Z,38.20
2018-08-03T17:07:19.321Z,38.60
2018-08-03T17:09:47.258Z,37.20
2018-08-03T17:12:15.255Z,37.20
2018-08-03T17:14:43.275Z,37.60
2018-08-03T17:17:11.269Z,36.60
2018-08-03T17:19:39.224Z,37.20
2018-08-03T17:22:07.152Z,38.00
2018-08-03T17:24:35.145Z,37.50
2018-08-03T17:27:03.074Z,37.40
2018-08-03T17:29:31.037Z,36.80
2018-08-03T17:31:59.028Z,36.80
2018-08-03T17:34:27.002Z,36.90
2018-08-03T17:36:54.994Z,36.20
2018-08-03T17:39:22.943Z,36.20
2018-08-03T17:41:50.874Z,36.40
2018-08-03T17:44:18.853Z,36.80
2018-08-03T17:46:46.832Z,36.50
2018-08-03T17:49:14.774Z,36.60
2018-08-03T17:51:42.769Z,36.10
2018-08-03T17:54:10.714Z,36.30
2018-08-03T17:56:38.696Z,35.90
2018-08-03T17:59:06.727Z,35.80
2018-08-03T18:01:34.767Z,35.40
2018-08-03T18:04:02.733Z,34.60
2018-08-03T18:06:30.721Z,34.50
2018-08-03T18:08:58.728Z,33.90
2018-08-03T18:11:26.715Z,33.50
2018-08-03T18:13:54.713Z,34.10
2018-08-03T18:16:22.675Z,33.90
2018-08-03T18:18:50.786Z,33.50
2018-08-03T18:21:18.705Z,34.20
2018-08-03T18:23:46.663Z,33.80
2018-08-03T18:26:14.642Z,33.70
2018-08-03T18:28:42.715Z,33.10
2018-08-03T18:31:10.665Z,33.30
2018-08-03T18:33:38.653Z,32.80
2018-08-03T18:36:06.668Z,32.80
2018-08-03T18:38:34.598Z,32.10
2018-08-03T18:41:02.580Z,32.00
2018-08-03T18:43:30.522Z,31.50
2018-08-03T18:45:58.534Z,31.70
2018-08-03T18:48:26.440Z,32.10
2018-08-03T18:50:54.423Z,31.20
2018-08-03T18:53:22.366Z,31.30
2018-08-03T18:55:50.284Z,30.90
2018-08-03T18:58:18.269Z,31.10
2018-08-03T19:00:46.180Z,30.80
2018-08-03T19:03:14.141Z,30.40
2018-08-03T19:05:42.115Z,30.20
2018-08-03T19:08:10.108Z,29.90
2018-08-03T19:10:38.205Z,29.80
2018-08-03T19:13:06.183Z,29.50
2018-08-03T19:15:34.143Z,29.70
2018-08-03T19:18:02.085Z,29.70
2018-08-03T19:20:30.029Z,29.20
2018-08-03T19:22:57.998Z,29.30
2018-08-03T19:25:25.926Z,29.40
2018-08-03T19:27:53.894Z,29.00
2018-08-03T19:30:21.926Z,28.80
2018-08-03T19:32:49.837Z,29.00
2018-08-03T19:35:17.805Z,28.90
2018-08-03T19:37:45.745Z,28.90
2018-08-03T19:40:13.753Z,28.80
2018-08-03T19:42:41.693Z,28.80
2018-08-03T19:45:09.722Z,28.70
2018-08-03T19:47:37.585Z,28.20
2018-08-03T19:50:06.535Z,28.30
2018-08-03T19:52:34.524Z,28.60
2018-08-03T19:55:02.412Z,28.50
2018-08-03T19:57:30.394Z,28.30
2018-08-03T19:59:58.382Z,28.20
2018-08-03T20:02:26.347Z,28.00
2018-08-03T20:04:54.328Z,28.20
2018-08-03T20:07:22.277Z,27.90
2018-08-03T20:09:50.206Z,28.10
2018-08-03T20:12:18.180Z,27.90
2018-08-03T20:14:46.168Z,27.40
2018-08-03T20:17:14.097Z,27.30
2018-08-03T20:19:44.882Z,27.40
2018-08-03T20:22:15.902Z,27.30
2018-08-03T20:24:43.971Z,27.20
2018-08-03T20:27:12.271Z,27.20
2018-08-03T20:29:40.277Z,27.40
2018-08-03T20:32:08.208Z,27.30
2018-08-03T20:34:36.622Z,27.20
2018-08-03T20:37:04.701Z,27.10
2018-08-03T20:39:32.759Z,27.20
2018-08-03T20:42:00.754Z,26.90
2018-08-03T20:44:29.096Z,26.70
2018-08-03T20:46:57.042Z,26.60
2018-08-03T20:49:25.062Z,26.60
2018-08-03T20:51:53.036Z,26.50
2018-08-03T20:54:21.008Z,26.60
2018-08-03T20:56:48.979Z,26.50
2018-08-03T20:59:16.908Z,26.40
2018-08-03T21:01:44.903Z,26.40
2018-08-03T21:04:12.839Z,26.20
2018-08-03T21:06:40.755Z,26.20
2018-08-03T21:09:10.504Z,26.30
2018-08-03T21:11:38.423Z,26.40
2018-08-03T21:14:06.435Z,26.00
2018-08-03T21:16:34.924Z,26.20
2018-08-03T21:19:03.721Z,26.00
2018-08-03T21:21:31.776Z,25.90
2018-08-03T21:23:59.743Z,25.80
2018-08-03T21:26:27.850Z,25.70
2018-08-03T21:28:55.791Z,25.70
2018-08-03T21:31:23.752Z,25.80
2018-08-03T21:33:51.670Z,25.60
2018-08-03T21:36:19.646Z,25.80
2018-08-03T21:38:47.616Z,25.50
2018-08-03T21:41:15.540Z,25.50
2018-08-03T21:43:43.547Z,25.50
2018-08-03T21:46:11.450Z,25.50
2018-08-03T21:48:39.422Z,25.50
2018-08-03T21:51:07.371Z,25.50
2018-08-03T21:53:35.313Z,25.40
2018-08-03T21:56:03.269Z,25.50
2018-08-03T21:58:31.218Z,25.60
2018-08-03T22:00:59.220Z,25.60
2018-08-03T22:03:27.174Z,25.60
2018-08-03T22:05:55.136Z,25.20
2018-08-03T22:08:23.071Z,25.20
2018-08-03T22:10:51.137Z,25.20
2018-08-03T22:13:19.221Z,25.00
2018-08-03T22:15:47.205Z,25.00
2018-08-03T22:18:15.161Z,25.00
2018-08-03T22:20:43.132Z,25.10
2018-08-03T22:23:11.097Z,24.90
2018-08-03T22:25:39.044Z,25.00
2018-08-03T22:28:06.992Z,25.00
2018-08-03T22:30:35.003Z,25.00
2018-08-03T22:33:03.040Z,25.00
2018-08-03T22:35:30.874Z,25.00
2018-08-03T22:37:59.012Z,25.00
2018-08-03T22:40:26.948Z,24.90
2018-08-03T22:42:54.959Z,24.80
2018-08-03T22:45:22.925Z,24.80
2018-08-03T22:47:50.853Z,24.70
2018-08-03T22:50:18.957Z,24.80
2018-08-03T22:52:46.946Z,24.50
2018-08-03T22:55:14.900Z,24.60
2018-08-03T22:57:42.827Z,24.60
2018-08-03T23:00:10.803Z,24.60
2018-08-03T23:02:38.729Z,24.40
2018-08-03T23:05:06.723Z,24.30
2018-08-03T23:07:34.657Z,24.20
2018-08-03T23:10:02.669Z,24.30
2018-08-03T23:12:30.589Z,24.30
2018-08-03T23:14:58.573Z,24.40
2018-08-03T23:17:26.537Z,24.10
2018-08-03T23:19:54.484Z,24.10
2018-08-03T23:22:22.462Z,24.10
2018-08-03T23:24:50.399Z,24.00
2018-08-03T23:27:18.365Z,24.10
2018-08-03T23:29:46.288Z,24.10
2018-08-03T23:32:14.257Z,23.70
2018-08-03T23:34:42.224Z,23.90
2018-08-03T23:37:10.192Z,23.70
2018-08-03T23:39:38.119Z,23.60
2018-08-03T23:42:06.072Z,23.60
2018-08-03T23:44:34.093Z,23.50
2018-08-03T23:47:02.017Z,23.40
2018-08-03T23:49:29.959Z,23.40
2018-08-03T23:51:57.874Z,23.40
2018-08-03T23:54:25.826Z,23.30
2018-08-03T23:56:53.745Z,23.40
2018-08-03T23:59:21.702Z,23.50
